sensor_id;sensor_type;location;lat;lon;timestamp;P1;durP1;ratioP1;P2;durP2;ratioP2
16284;SDS011;8250;52.426;9.450;2022-08-19T00:00:29;4.13;;;3.72;;
16284;SDS011;8250;52.426;9.450;2022-08-19T00:02:57;4.03;;;3.63;;
16284;SDS011;8250;52.426;9.450;2022-08-19T00:05:24;4.22;;;3.67;;
16284;SDS011;8250;52.426;9.450;2022-08-19T00:07:51;4.18;;;3.65;;
16284;SDS011;8250;52.426;9.450;2022-08-19T00:10:19;5.50;;;3.80;;
16284;SDS011;8250;52.426;9.450;2022-08-19T00:12:47;5.15;;;3.80;;
16284;SDS011;8250;52.426;9.450;2022-08-19T00:15:15;4.55;;;3.40;;
16284;SDS011;8250;52.426;9.450;2022-08-19T00:17:44;5.40;;;4.10;;
16284;SDS011;8250;52.426;9.450;2022-08-19T00:20:19;5.07;;;3.90;;
16284;SDS011;8250;52.426;9.450;2022-08-19T00:22:48;4.35;;;3.28;;
16284;SDS011;8250;52.426;9.450;2022-08-19T00:25:16;5.05;;;3.95;;
16284;SDS011;8250;52.426;9.450;2022-08-19T00:27:45;4.80;;;4.00;;
16284;SDS011;8250;52.426;9.450;2022-08-19T00:30:12;5.50;;;4.03;;
16284;SDS011;8250;52.426;9.450;2022-08-19T00:32:39;5.72;;;3.92;;
16284;SDS011;8250;52.426;9.450;2022-08-19T00:35:07;5.65;;;4.38;;
16284;SDS011;8250;52.426;9.450;2022-08-19T00:37:35;4.32;;;3.53;;
16284;SDS011;8250;52.426;9.450;2022-08-19T00:40:04;4.07;;;3.65;;
16284;SDS011;8250;52.426;9.450;2022-08-19T00:42:32;5.43;;;3.83;;
16284;SDS011;8250;52.426;9.450;2022-08-19T00:45:00;4.72;;;3.33;;
16284;SDS011;8250;52.426;9.450;2022-08-19T00:47:27;4.10;;;3.70;;
16284;SDS011;8250;52.426;9.450;2022-08-19T00:49:55;5.57;;;4.18;;
16284;SDS011;8250;52.426;9.450;2022-08-19T00:52:25;4.95;;;4.30;;
16284;SDS011;8250;52.426;9.450;2022-08-19T00:54:55;6.78;;;5.22;;
16284;SDS011;8250;52.426;9.450;2022-08-19T00:57:24;5.40;;;4.30;;
16284;SDS011;8250;52.426;9.450;2022-08-19T00:59:55;5.97;;;5.00;;
16284;SDS011;8250;52.426;9.450;2022-08-19T01:02:25;5.75;;;4.05;;
16284;SDS011;8250;52.426;9.450;2022-08-19T01:04:53;5.65;;;4.20;;
16284;SDS011;8250;52.426;9.450;2022-08-19T01:07:20;5.50;;;4.68;;
16284;SDS011;8250;52.426;9.450;2022-08-19T01:09:48;4.00;;;3.50;;
16284;SDS011;8250;52.426;9.450;2022-08-19T01:12:15;5.97;;;3.78;;
16284;SDS011;8250;52.426;9.450;2022-08-19T01:14:44;5.10;;;4.00;;
16284;SDS011;8250;52.426;9.450;2022-08-19T01:17:11;4.43;;;4.03;;
16284;SDS011;8250;52.426;9.450;2022-08-19T01:19:43;5.40;;;3.67;;
16284;SDS011;8250;52.426;9.450;2022-08-19T01:22:12;5.40;;;4.38;;
16284;SDS011;8250;52.426;9.450;2022-08-19T01:24:47;3.80;;;3.47;;
16284;SDS011;8250;52.426;9.450;2022-08-19T01:27:14;5.38;;;3.90;;
16284;SDS011;8250;52.426;9.450;2022-08-19T01:29:42;5.38;;;3.90;;
16284;SDS011;8250;52.426;9.450;2022-08-19T01:32:11;5.53;;;3.80;;
16284;SDS011;8250;52.426;9.450;2022-08-19T01:34:39;4.50;;;4.10;;
16284;SDS011;8250;52.426;9.450;2022-08-19T01:37:07;6.30;;;4.10;;
16284;SDS011;8250;52.426;9.450;2022-08-19T01:39:36;6.57;;;4.47;;
16284;SDS011;8250;52.426;9.450;2022-08-19T01:42:06;4.65;;;4.10;;
16284;SDS011;8250;52.426;9.450;2022-08-19T01:44:37;5.53;;;4.10;;
16284;SDS011;8250;52.426;9.450;2022-08-19T01:47:05;4.95;;;4.40;;
16284;SDS011;8250;52.426;9.450;2022-08-19T01:49:33;4.32;;;3.80;;
16284;SDS011;8250;52.426;9.450;2022-08-19T01:52:00;6.50;;;3.95;;
16284;SDS011;8250;52.426;9.450;2022-08-19T01:54:27;5.30;;;4.65;;
16284;SDS011;8250;52.426;9.450;2022-08-19T01:56:55;5.28;;;4.25;;
16284;SDS011;8250;52.426;9.450;2022-08-19T01:59:27;5.60;;;4.20;;
16284;SDS011;8250;52.426;9.450;2022-08-19T02:01:55;4.65;;;3.80;;
16284;SDS011;8250;52.426;9.450;2022-08-19T02:04:22;5.22;;;3.65;;
16284;SDS011;8250;52.426;9.450;2022-08-19T02:06:50;3.70;;;3.30;;
16284;SDS011;8250;52.426;9.450;2022-08-19T02:09:17;7.88;;;3.60;;
16284;SDS011;8250;52.426;9.450;2022-08-19T02:11:44;4.22;;;3.05;;
16284;SDS011;8250;52.426;9.450;2022-08-19T02:14:11;4.35;;;3.83;;
16284;SDS011;8250;52.426;9.450;2022-08-19T02:16:39;5.65;;;3.92;;
16284;SDS011;8250;52.426;9.450;2022-08-19T02:19:06;4.85;;;3.75;;
16284;SDS011;8250;52.426;9.450;2022-08-19T02:21:34;3.97;;;3.40;;
16284;SDS011;8250;52.426;9.450;2022-08-19T02:24:01;5.07;;;3.83;;
16284;SDS011;8250;52.426;9.450;2022-08-19T02:26:29;6.10;;;4.18;;
16284;SDS011;8250;52.426;9.450;2022-08-19T02:28:55;4.88;;;3.80;;
16284;SDS011;8250;52.426;9.450;2022-08-19T02:31:23;5.28;;;3.80;;
16284;SDS011;8250;52.426;9.450;2022-08-19T02:33:54;3.60;;;3.20;;
16284;SDS011;8250;52.426;9.450;2022-08-19T02:36:21;5.60;;;3.80;;
16284;SDS011;8250;52.426;9.450;2022-08-19T02:38:48;3.70;;;3.00;;
16284;SDS011;8250;52.426;9.450;2022-08-19T02:41:15;4.80;;;3.40;;
16284;SDS011;8250;52.426;9.450;2022-08-19T02:43:44;4.10;;;3.50;;
16284;SDS011;8250;52.426;9.450;2022-08-19T02:46:12;3.72;;;3.20;;
16284;SDS011;8250;52.426;9.450;2022-08-19T02:48:42;5.18;;;3.70;;
16284;SDS011;8250;52.426;9.450;2022-08-19T02:51:16;5.40;;;4.13;;
16284;SDS011;8250;52.426;9.450;2022-08-19T02:53:44;4.97;;;3.67;;
16284;SDS011;8250;52.426;9.450;2022-08-19T02:56:11;3.63;;;2.92;;
16284;SDS011;8250;52.426;9.450;2022-08-19T02:58:38;3.90;;;3.15;;
16284;SDS011;8250;52.426;9.450;2022-08-19T03:01:05;3.88;;;2.90;;
16284;SDS011;8250;52.426;9.450;2022-08-19T03:03:32;3.80;;;3.40;;
16284;SDS011;8250;52.426;9.450;2022-08-19T03:06:03;5.03;;;3.25;;
16284;SDS011;8250;52.426;9.450;2022-08-19T03:08:32;3.60;;;3.17;;
16284;SDS011;8250;52.426;9.450;2022-08-19T03:10:59;3.90;;;3.10;;
16284;SDS011;8250;52.426;9.450;2022-08-19T03:13:26;3.55;;;3.25;;
16284;SDS011;8250;52.426;9.450;2022-08-19T03:15:54;3.33;;;3.03;;
16284;SDS011;8250;52.426;9.450;2022-08-19T03:18:21;3.78;;;2.90;;
16284;SDS011;8250;52.426;9.450;2022-08-19T03:20:49;3.35;;;3.08;;
16284;SDS011;8250;52.426;9.450;2022-08-19T03:23:17;3.78;;;3.28;;
16284;SDS011;8250;52.426;9.450;2022-08-19T03:25:47;3.97;;;3.10;;
16284;SDS011;8250;52.426;9.450;2022-08-19T03:28:15;4.38;;;3.50;;
16284;SDS011;8250;52.426;9.450;2022-08-19T03:30:43;3.17;;;2.88;;
16284;SDS011;8250;52.426;9.450;2022-08-19T03:33:22;3.25;;;2.95;;
16284;SDS011;8250;52.426;9.450;2022-08-19T03:35:59;5.20;;;3.70;;
16284;SDS011;8250;52.426;9.450;2022-08-19T03:38:27;3.45;;;2.97;;
16284;SDS011;8250;52.426;9.450;2022-08-19T03:40:56;3.75;;;3.10;;
16284;SDS011;8250;52.426;9.450;2022-08-19T03:43:22;3.53;;;3.22;;
16284;SDS011;8250;52.426;9.450;2022-08-19T03:45:58;4.10;;;3.25;;
16284;SDS011;8250;52.426;9.450;2022-08-19T03:48:27;5.20;;;4.15;;
16284;SDS011;8250;52.426;9.450;2022-08-19T03:50:55;6.13;;;4.93;;
16284;SDS011;8250;52.426;9.450;2022-08-19T03:53:24;4.45;;;4.03;;
16284;SDS011;8250;52.426;9.450;2022-08-19T03:55:52;6.97;;;5.65;;
16284;SDS011;8250;52.426;9.450;2022-08-19T03:58:20;5.50;;;4.63;;
16284;SDS011;8250;52.426;9.450;2022-08-19T04:00:47;6.90;;;4.93;;
16284;SDS011;8250;52.426;9.450;2022-08-19T04:03:14;6.63;;;5.15;;
16284;SDS011;8250;52.426;9.450;2022-08-19T04:05:43;6.63;;;4.93;;
16284;SDS011;8250;52.426;9.450;2022-08-19T04:08:10;6.68;;;4.82;;
16284;SDS011;8250;52.426;9.450;2022-08-19T04:10:37;7.20;;;4.47;;
16284;SDS011;8250;52.426;9.450;2022-08-19T04:13:05;6.50;;;4.50;;
16284;SDS011;8250;52.426;9.450;2022-08-19T04:15:38;7.63;;;5.28;;
16284;SDS011;8250;52.426;9.450;2022-08-19T04:18:06;6.65;;;5.15;;
16284;SDS011;8250;52.426;9.450;2022-08-19T04:20:38;6.43;;;5.20;;
16284;SDS011;8250;52.426;9.450;2022-08-19T04:23:09;7.88;;;4.32;;
16284;SDS011;8250;52.426;9.450;2022-08-19T04:25:37;6.15;;;4.40;;
16284;SDS011;8250;52.426;9.450;2022-08-19T04:28:05;6.28;;;4.72;;
16284;SDS011;8250;52.426;9.450;2022-08-19T04:30:39;8.32;;;5.88;;
16284;SDS011;8250;52.426;9.450;2022-08-19T04:33:07;9.55;;;6.45;;
16284;SDS011;8250;52.426;9.450;2022-08-19T04:35:36;7.63;;;5.75;;
16284;SDS011;8250;52.426;9.450;2022-08-19T04:38:05;10.95;;;7.22;;
16284;SDS011;8250;52.426;9.450;2022-08-19T04:40:33;9.27;;;6.88;;
16284;SDS011;8250;52.426;9.450;2022-08-19T04:43:18;7.68;;;6.22;;
16284;SDS011;8250;52.426;9.450;2022-08-19T04:45:46;7.85;;;6.10;;
16284;SDS011;8250;52.426;9.450;2022-08-19T04:48:13;9.38;;;7.10;;
16284;SDS011;8250;52.426;9.450;2022-08-19T04:50:40;9.02;;;6.38;;
16284;SDS011;8250;52.426;9.450;2022-08-19T04:53:08;7.20;;;5.30;;
16284;SDS011;8250;52.426;9.450;2022-08-19T04:55:38;6.93;;;5.68;;
16284;SDS011;8250;52.426;9.450;2022-08-19T04:58:06;12.20;;;8.15;;
16284;SDS011;8250;52.426;9.450;2022-08-19T05:00:33;12.32;;;8.90;;
16284;SDS011;8250;52.426;9.450;2022-08-19T05:03:01;12.40;;;8.52;;
16284;SDS011;8250;52.426;9.450;2022-08-19T05:05:28;15.80;;;9.60;;
16284;SDS011;8250;52.426;9.450;2022-08-19T05:07:56;16.50;;;10.27;;
16284;SDS011;8250;52.426;9.450;2022-08-19T05:10:23;11.80;;;8.40;;
16284;SDS011;8250;52.426;9.450;2022-08-19T05:12:50;17.20;;;11.45;;
16284;SDS011;8250;52.426;9.450;2022-08-19T05:15:17;16.17;;;10.13;;
16284;SDS011;8250;52.426;9.450;2022-08-19T05:17:44;15.70;;;10.25;;
16284;SDS011;8250;52.426;9.450;2022-08-19T05:20:27;15.85;;;10.25;;
16284;SDS011;8250;52.426;9.450;2022-08-19T05:23:11;18.50;;;10.50;;
16284;SDS011;8250;52.426;9.450;2022-08-19T05:25:40;15.27;;;9.90;;
16284;SDS011;8250;52.426;9.450;2022-08-19T05:28:07;15.20;;;10.18;;
16284;SDS011;8250;52.426;9.450;2022-08-19T05:30:34;14.75;;;9.30;;
16284;SDS011;8250;52.426;9.450;2022-08-19T05:33:01;16.83;;;9.35;;
16284;SDS011;8250;52.426;9.450;2022-08-19T05:35:30;13.68;;;8.70;;
16284;SDS011;8250;52.426;9.450;2022-08-19T05:37:56;11.82;;;7.90;;
16284;SDS011;8250;52.426;9.450;2022-08-19T05:40:23;9.77;;;7.22;;
16284;SDS011;8250;52.426;9.450;2022-08-19T05:42:50;11.00;;;7.90;;
16284;SDS011;8250;52.426;9.450;2022-08-19T05:45:18;13.43;;;9.68;;
16284;SDS011;8250;52.426;9.450;2022-08-19T05:47:46;14.48;;;9.90;;
16284;SDS011;8250;52.426;9.450;2022-08-19T05:50:13;13.95;;;9.18;;
16284;SDS011;8250;52.426;9.450;2022-08-19T05:52:41;15.93;;;10.00;;
16284;SDS011;8250;52.426;9.450;2022-08-19T05:55:08;15.25;;;10.30;;
16284;SDS011;8250;52.426;9.450;2022-08-19T05:57:35;11.43;;;8.48;;
16284;SDS011;8250;52.426;9.450;2022-08-19T06:00:03;12.25;;;8.57;;
16284;SDS011;8250;52.426;9.450;2022-08-19T06:02:33;10.07;;;7.55;;
16284;SDS011;8250;52.426;9.450;2022-08-19T06:05:01;8.65;;;6.93;;
16284;SDS011;8250;52.426;9.450;2022-08-19T06:07:28;14.25;;;9.18;;
16284;SDS011;8250;52.426;9.450;2022-08-19T06:09:57;10.60;;;7.78;;
16284;SDS011;8250;52.426;9.450;2022-08-19T06:12:24;8.82;;;6.65;;
16284;SDS011;8250;52.426;9.450;2022-08-19T06:14:59;15.18;;;9.30;;
16284;SDS011;8250;52.426;9.450;2022-08-19T06:17:26;14.10;;;10.02;;
16284;SDS011;8250;52.426;9.450;2022-08-19T06:19:55;12.52;;;9.57;;
16284;SDS011;8250;52.426;9.450;2022-08-19T06:22:23;11.98;;;7.32;;
16284;SDS011;8250;52.426;9.450;2022-08-19T06:24:51;9.30;;;6.82;;
16284;SDS011;8250;52.426;9.450;2022-08-19T06:27:20;12.77;;;8.00;;
16284;SDS011;8250;52.426;9.450;2022-08-19T06:29:48;8.77;;;6.20;;
16284;SDS011;8250;52.426;9.450;2022-08-19T06:32:16;8.60;;;5.35;;
16284;SDS011;8250;52.426;9.450;2022-08-19T06:34:45;8.90;;;6.00;;
16284;SDS011;8250;52.426;9.450;2022-08-19T06:37:12;7.75;;;6.13;;
16284;SDS011;8250;52.426;9.450;2022-08-19T06:39:40;13.02;;;8.93;;
16284;SDS011;8250;52.426;9.450;2022-08-19T06:42:09;8.60;;;6.72;;
16284;SDS011;8250;52.426;9.450;2022-08-19T06:44:40;7.65;;;6.45;;
16284;SDS011;8250;52.426;9.450;2022-08-19T06:47:08;7.18;;;5.38;;
16284;SDS011;8250;52.426;9.450;2022-08-19T06:49:36;6.90;;;5.40;;
16284;SDS011;8250;52.426;9.450;2022-08-19T06:52:04;5.22;;;4.43;;
16284;SDS011;8250;52.426;9.450;2022-08-19T06:54:31;5.78;;;4.45;;
16284;SDS011;8250;52.426;9.450;2022-08-19T06:56:59;7.85;;;5.55;;
16284;SDS011;8250;52.426;9.450;2022-08-19T06:59:27;6.07;;;5.05;;
16284;SDS011;8250;52.426;9.450;2022-08-19T07:01:59;8.07;;;6.30;;
16284;SDS011;8250;52.426;9.450;2022-08-19T07:04:29;7.15;;;5.25;;
16284;SDS011;8250;52.426;9.450;2022-08-19T07:06:58;7.43;;;5.18;;
16284;SDS011;8250;52.426;9.450;2022-08-19T07:09:26;5.28;;;4.50;;
16284;SDS011;8250;52.426;9.450;2022-08-19T07:11:54;8.40;;;5.53;;
16284;SDS011;8250;52.426;9.450;2022-08-19T07:14:23;6.75;;;5.35;;
16284;SDS011;8250;52.426;9.450;2022-08-19T07:16:53;6.38;;;4.78;;
16284;SDS011;8250;52.426;9.450;2022-08-19T07:19:23;5.53;;;4.43;;
16284;SDS011;8250;52.426;9.450;2022-08-19T07:21:52;4.82;;;4.32;;
16284;SDS011;8250;52.426;9.450;2022-08-19T07:24:20;5.93;;;4.30;;
16284;SDS011;8250;52.426;9.450;2022-08-19T07:26:50;7.07;;;4.90;;
16284;SDS011;8250;52.426;9.450;2022-08-19T07:29:19;7.18;;;5.10;;
16284;SDS011;8250;52.426;9.450;2022-08-19T07:31:48;6.57;;;4.97;;
16284;SDS011;8250;52.426;9.450;2022-08-19T07:34:16;6.10;;;4.82;;
16284;SDS011;8250;52.426;9.450;2022-08-19T07:36:44;4.25;;;3.50;;
16284;SDS011;8250;52.426;9.450;2022-08-19T07:39:13;5.05;;;3.97;;
16284;SDS011;8250;52.426;9.450;2022-08-19T07:41:42;5.20;;;3.95;;
16284;SDS011;8250;52.426;9.450;2022-08-19T07:44:10;7.68;;;5.10;;
16284;SDS011;8250;52.426;9.450;2022-08-19T07:46:41;5.90;;;4.50;;
16284;SDS011;8250;52.426;9.450;2022-08-19T07:49:09;5.93;;;4.55;;
16284;SDS011;8250;52.426;9.450;2022-08-19T07:51:46;4.43;;;3.47;;
16284;SDS011;8250;52.426;9.450;2022-08-19T07:54:14;6.03;;;4.07;;
16284;SDS011;8250;52.426;9.450;2022-08-19T07:56:41;4.95;;;3.83;;
16284;SDS011;8250;52.426;9.450;2022-08-19T07:59:08;6.00;;;4.28;;
16284;SDS011;8250;52.426;9.450;2022-08-19T08:01:35;6.28;;;4.70;;
16284;SDS011;8250;52.426;9.450;2022-08-19T08:04:05;6.80;;;4.65;;
16284;SDS011;8250;52.426;9.450;2022-08-19T08:06:51;6.65;;;4.38;;
16284;SDS011;8250;52.426;9.450;2022-08-19T08:09:37;5.05;;;4.10;;
16284;SDS011;8250;52.426;9.450;2022-08-19T08:12:06;3.95;;;3.13;;
16284;SDS011;8250;52.426;9.450;2022-08-19T08:14:36;4.78;;;2.97;;
16284;SDS011;8250;52.426;9.450;2022-08-19T08:17:05;3.70;;;2.85;;
16284;SDS011;8250;52.426;9.450;2022-08-19T08:19:32;3.38;;;2.30;;
16284;SDS011;8250;52.426;9.450;2022-08-19T08:22:01;3.00;;;2.33;;
16284;SDS011;8250;52.426;9.450;2022-08-19T08:24:32;3.17;;;2.30;;
16284;SDS011;8250;52.426;9.450;2022-08-19T08:27:01;3.25;;;2.83;;
16284;SDS011;8250;52.426;9.450;2022-08-19T08:29:29;3.20;;;2.40;;
16284;SDS011;8250;52.426;9.450;2022-08-19T08:31:58;2.97;;;2.47;;
16284;SDS011;8250;52.426;9.450;2022-08-19T08:34:25;3.78;;;2.47;;
16284;SDS011;8250;52.426;9.450;2022-08-19T08:36:51;3.28;;;2.60;;
16284;SDS011;8250;52.426;9.450;2022-08-19T08:39:20;2.55;;;2.28;;
16284;SDS011;8250;52.426;9.450;2022-08-19T08:41:50;4.03;;;2.60;;
16284;SDS011;8250;52.426;9.450;2022-08-19T08:44:26;2.10;;;1.90;;
16284;SDS011;8250;52.426;9.450;2022-08-19T08:47:09;2.33;;;2.13;;
16284;SDS011;8250;52.426;9.450;2022-08-19T08:49:40;3.70;;;2.00;;
16284;SDS011;8250;52.426;9.450;2022-08-19T08:52:13;2.78;;;2.00;;
16284;SDS011;8250;52.426;9.450;2022-08-19T08:54:47;3.53;;;1.98;;
16284;SDS011;8250;52.426;9.450;2022-08-19T08:57:20;2.13;;;1.83;;
16284;SDS011;8250;52.426;9.450;2022-08-19T08:59:51;2.28;;;1.90;;
16284;SDS011;8250;52.426;9.450;2022-08-19T09:02:23;1.92;;;1.83;;
16284;SDS011;8250;52.426;9.450;2022-08-19T09:04:51;2.28;;;1.90;;
16284;SDS011;8250;52.426;9.450;2022-08-19T09:07:22;3.25;;;2.47;;
16284;SDS011;8250;52.426;9.450;2022-08-19T09:10:04;2.60;;;2.40;;
16284;SDS011;8250;52.426;9.450;2022-08-19T09:12:38;2.80;;;2.08;;
16284;SDS011;8250;52.426;9.450;2022-08-19T09:15:14;2.85;;;2.30;;
16284;SDS011;8250;52.426;9.450;2022-08-19T09:17:43;3.50;;;2.80;;
16284;SDS011;8250;52.426;9.450;2022-08-19T09:20:14;2.83;;;2.55;;
16284;SDS011;8250;52.426;9.450;2022-08-19T09:22:43;2.15;;;1.95;;
16284;SDS011;8250;52.426;9.450;2022-08-19T09:25:13;2.88;;;2.35;;
16284;SDS011;8250;52.426;9.450;2022-08-19T09:27:42;2.25;;;2.05;;
16284;SDS011;8250;52.426;9.450;2022-08-19T09:30:12;2.90;;;2.60;;
16284;SDS011;8250;52.426;9.450;2022-08-19T09:32:42;3.10;;;2.45;;
16284;SDS011;8250;52.426;9.450;2022-08-19T09:35:10;3.08;;;2.78;;
16284;SDS011;8250;52.426;9.450;2022-08-19T09:37:39;2.70;;;2.20;;
16284;SDS011;8250;52.426;9.450;2022-08-19T09:40:08;2.97;;;2.30;;
16284;SDS011;8250;52.426;9.450;2022-08-19T09:42:37;2.53;;;2.33;;
16284;SDS011;8250;52.426;9.450;2022-08-19T09:45:05;2.97;;;2.30;;
16284;SDS011;8250;52.426;9.450;2022-08-19T09:47:32;2.80;;;2.50;;
16284;SDS011;8250;52.426;9.450;2022-08-19T09:50:01;2.58;;;2.38;;
16284;SDS011;8250;52.426;9.450;2022-08-19T09:52:28;3.58;;;2.30;;
16284;SDS011;8250;52.426;9.450;2022-08-19T09:54:55;2.80;;;2.33;;
16284;SDS011;8250;52.426;9.450;2022-08-19T09:57:22;3.53;;;2.50;;
16284;SDS011;8250;52.426;9.450;2022-08-19T09:59:50;3.22;;;2.15;;
16284;SDS011;8250;52.426;9.450;2022-08-19T10:02:18;2.35;;;2.15;;
16284;SDS011;8250;52.426;9.450;2022-08-19T10:04:45;3.90;;;2.95;;
16284;SDS011;8250;52.426;9.450;2022-08-19T10:07:29;4.00;;;2.55;;
16284;SDS011;8250;52.426;9.450;2022-08-19T10:09:56;2.35;;;2.13;;
16284;SDS011;8250;52.426;9.450;2022-08-19T10:12:23;2.20;;;2.00;;
16284;SDS011;8250;52.426;9.450;2022-08-19T10:14:52;2.70;;;2.15;;
16284;SDS011;8250;52.426;9.450;2022-08-19T10:17:20;2.10;;;1.77;;
16284;SDS011;8250;52.426;9.450;2022-08-19T10:19:47;2.40;;;1.92;;
16284;SDS011;8250;52.426;9.450;2022-08-19T10:22:14;3.00;;;1.83;;
16284;SDS011;8250;52.426;9.450;2022-08-19T10:24:41;2.08;;;1.73;;
16284;SDS011;8250;52.426;9.450;2022-08-19T10:27:08;1.77;;;1.60;;
16284;SDS011;8250;52.426;9.450;2022-08-19T10:29:35;1.85;;;1.75;;
16284;SDS011;8250;52.426;9.450;2022-08-19T10:32:04;2.30;;;1.67;;
16284;SDS011;8250;52.426;9.450;2022-08-19T10:34:34;2.38;;;2.08;;
16284;SDS011;8250;52.426;9.450;2022-08-19T10:37:02;1.80;;;1.70;;
16284;SDS011;8250;52.426;9.450;2022-08-19T10:39:31;1.63;;;1.40;;
16284;SDS011;8250;52.426;9.450;2022-08-19T10:42:03;2.72;;;2.33;;
16284;SDS011;8250;52.426;9.450;2022-08-19T10:44:31;2.40;;;1.67;;
16284;SDS011;8250;52.426;9.450;2022-08-19T10:47:00;1.80;;;1.70;;
16284;SDS011;8250;52.426;9.450;2022-08-19T10:49:29;2.50;;;2.30;;
16284;SDS011;8250;52.426;9.450;2022-08-19T10:51:57;2.20;;;2.00;;
16284;SDS011;8250;52.426;9.450;2022-08-19T10:54:41;2.90;;;2.28;;
16284;SDS011;8250;52.426;9.450;2022-08-19T10:57:34;2.08;;;1.88;;
16284;SDS011;8250;52.426;9.450;2022-08-19T11:00:02;1.80;;;1.70;;
16284;SDS011;8250;52.426;9.450;2022-08-19T11:02:30;2.88;;;2.10;;
16284;SDS011;8250;52.426;9.450;2022-08-19T11:04:59;3.17;;;2.10;;
16284;SDS011;8250;52.426;9.450;2022-08-19T11:07:26;2.20;;;2.00;;
16284;SDS011;8250;52.426;9.450;2022-08-19T11:09:53;2.47;;;2.28;;
16284;SDS011;8250;52.426;9.450;2022-08-19T11:12:20;3.17;;;2.05;;
16284;SDS011;8250;52.426;9.450;2022-08-19T11:14:46;4.03;;;2.00;;
16284;SDS011;8250;52.426;9.450;2022-08-19T11:17:14;2.45;;;2.25;;
16284;SDS011;8250;52.426;9.450;2022-08-19T11:19:42;1.98;;;1.77;;
16284;SDS011;8250;52.426;9.450;2022-08-19T11:22:10;3.55;;;1.95;;
16284;SDS011;8250;52.426;9.450;2022-08-19T11:24:37;2.13;;;1.70;;
16284;SDS011;8250;52.426;9.450;2022-08-19T11:27:06;1.83;;;1.70;;
16284;SDS011;8250;52.426;9.450;2022-08-19T11:29:35;1.65;;;1.55;;
16284;SDS011;8250;52.426;9.450;2022-08-19T11:32:05;2.92;;;1.73;;
16284;SDS011;8250;52.426;9.450;2022-08-19T11:34:36;1.52;;;1.42;;
16284;SDS011;8250;52.426;9.450;2022-08-19T11:37:03;2.80;;;2.17;;
16284;SDS011;8250;52.426;9.450;2022-08-19T11:39:32;2.78;;;1.80;;
16284;SDS011;8250;52.426;9.450;2022-08-19T11:42:02;2.72;;;1.60;;
16284;SDS011;8250;52.426;9.450;2022-08-19T11:44:51;1.77;;;1.63;;
16284;SDS011;8250;52.426;9.450;2022-08-19T11:47:18;1.55;;;1.40;;
16284;SDS011;8250;52.426;9.450;2022-08-19T11:49:46;2.70;;;1.70;;
16284;SDS011;8250;52.426;9.450;2022-08-19T11:52:13;1.55;;;1.45;;
16284;SDS011;8250;52.426;9.450;2022-08-19T11:54:41;1.50;;;1.40;;
16284;SDS011;8250;52.426;9.450;2022-08-19T11:57:08;1.30;;;1.20;;
16284;SDS011;8250;52.426;9.450;2022-08-19T11:59:35;1.50;;;1.40;;
16284;SDS011;8250;52.426;9.450;2022-08-19T12:02:02;1.70;;;1.60;;
16284;SDS011;8250;52.426;9.450;2022-08-19T12:04:29;2.92;;;1.73;;
16284;SDS011;8250;52.426;9.450;2022-08-19T12:06:56;1.45;;;1.35;;
16284;SDS011;8250;52.426;9.450;2022-08-19T12:09:23;1.50;;;1.40;;
16284;SDS011;8250;52.426;9.450;2022-08-19T12:11:51;1.60;;;1.50;;
16284;SDS011;8250;52.426;9.450;2022-08-19T12:14:19;2.00;;;1.42;;
16284;SDS011;8250;52.426;9.450;2022-08-19T12:16:46;1.58;;;1.48;;
16284;SDS011;8250;52.426;9.450;2022-08-19T12:19:13;1.52;;;1.42;;
16284;SDS011;8250;52.426;9.450;2022-08-19T12:21:40;1.33;;;1.23;;
16284;SDS011;8250;52.426;9.450;2022-08-19T12:24:07;1.40;;;1.30;;
16284;SDS011;8250;52.426;9.450;2022-08-19T12:26:34;2.63;;;1.15;;
16284;SDS011;8250;52.426;9.450;2022-08-19T12:29:03;2.10;;;1.10;;
16284;SDS011;8250;52.426;9.450;2022-08-19T12:31:30;1.65;;;1.40;;
16284;SDS011;8250;52.426;9.450;2022-08-19T12:33:57;2.08;;;1.20;;
16284;SDS011;8250;52.426;9.450;2022-08-19T12:36:27;1.58;;;1.15;;
16284;SDS011;8250;52.426;9.450;2022-08-19T12:38:54;1.20;;;1.10;;
16284;SDS011;8250;52.426;9.450;2022-08-19T12:41:23;1.30;;;1.10;;
16284;SDS011;8250;52.426;9.450;2022-08-19T12:43:50;1.30;;;1.20;;
16284;SDS011;8250;52.426;9.450;2022-08-19T12:46:19;0.90;;;0.90;;
16284;SDS011;8250;52.426;9.450;2022-08-19T12:48:46;0.90;;;0.90;;
16284;SDS011;8250;52.426;9.450;2022-08-19T12:51:14;1.48;;;1.10;;
16284;SDS011;8250;52.426;9.450;2022-08-19T12:53:43;1.20;;;1.10;;
16284;SDS011;8250;52.426;9.450;2022-08-19T12:56:11;1.85;;;1.10;;
16284;SDS011;8250;52.426;9.450;2022-08-19T12:58:41;1.27;;;1.10;;
16284;SDS011;8250;52.426;9.450;2022-08-19T13:01:09;1.20;;;1.10;;
16284;SDS011;8250;52.426;9.450;2022-08-19T13:03:39;0.70;;;0.70;;
16284;SDS011;8250;52.426;9.450;2022-08-19T13:06:06;1.00;;;1.00;;
16284;SDS011;8250;52.426;9.450;2022-08-19T13:08:35;1.23;;;1.13;;
16284;SDS011;8250;52.426;9.450;2022-08-19T13:11:08;1.98;;;1.00;;
16284;SDS011;8250;52.426;9.450;2022-08-19T13:13:38;1.40;;;1.30;;
16284;SDS011;8250;52.426;9.450;2022-08-19T13:16:07;0.90;;;0.90;;
16284;SDS011;8250;52.426;9.450;2022-08-19T13:18:36;1.30;;;1.10;;
16284;SDS011;8250;52.426;9.450;2022-08-19T13:21:05;2.10;;;1.30;;
16284;SDS011;8250;52.426;9.450;2022-08-19T13:23:34;1.13;;;1.02;;
16284;SDS011;8250;52.426;9.450;2022-08-19T13:26:02;1.35;;;0.93;;
16284;SDS011;8250;52.426;9.450;2022-08-19T13:28:31;1.67;;;1.30;;
16284;SDS011;8250;52.426;9.450;2022-08-19T13:31:14;1.17;;;1.08;;
16284;SDS011;8250;52.426;9.450;2022-08-19T13:33:59;1.10;;;1.00;;
16284;SDS011;8250;52.426;9.450;2022-08-19T13:36:27;1.77;;;1.10;;
16284;SDS011;8250;52.426;9.450;2022-08-19T13:38:55;1.40;;;1.20;;
16284;SDS011;8250;52.426;9.450;2022-08-19T13:41:22;2.50;;;1.00;;
16284;SDS011;8250;52.426;9.450;2022-08-19T13:43:49;3.03;;;1.10;;
16284;SDS011;8250;52.426;9.450;2022-08-19T13:46:16;1.50;;;1.10;;
16284;SDS011;8250;52.426;9.450;2022-08-19T13:48:45;1.25;;;1.10;;
16284;SDS011;8250;52.426;9.450;2022-08-19T13:51:13;1.08;;;1.08;;
16284;SDS011;8250;52.426;9.450;2022-08-19T13:53:42;0.90;;;0.90;;
16284;SDS011;8250;52.426;9.450;2022-08-19T13:56:11;1.17;;;1.08;;
16284;SDS011;8250;52.426;9.450;2022-08-19T13:58:40;3.38;;;1.33;;
16284;SDS011;8250;52.426;9.450;2022-08-19T14:01:07;1.30;;;1.20;;
16284;SDS011;8250;52.426;9.450;2022-08-19T14:03:35;1.20;;;1.02;;
16284;SDS011;8250;52.426;9.450;2022-08-19T14:06:02;3.22;;;0.90;;
16284;SDS011;8250;52.426;9.450;2022-08-19T14:08:29;1.23;;;0.88;;
16284;SDS011;8250;52.426;9.450;2022-08-19T14:10:58;1.80;;;0.88;;
16284;SDS011;8250;52.426;9.450;2022-08-19T14:13:25;0.95;;;0.90;;
16284;SDS011;8250;52.426;9.450;2022-08-19T14:15:52;0.80;;;0.80;;
16284;SDS011;8250;52.426;9.450;2022-08-19T14:18:19;1.00;;;0.90;;
16284;SDS011;8250;52.426;9.450;2022-08-19T14:20:46;0.75;;;0.75;;
16284;SDS011;8250;52.426;9.450;2022-08-19T14:23:14;1.67;;;1.33;;
16284;SDS011;8250;52.426;9.450;2022-08-19T14:25:40;1.83;;;1.27;;
16284;SDS011;8250;52.426;9.450;2022-08-19T14:28:09;1.45;;;1.20;;
16284;SDS011;8250;52.426;9.450;2022-08-19T14:30:36;1.10;;;1.05;;
16284;SDS011;8250;52.426;9.450;2022-08-19T14:33:05;1.30;;;1.20;;
16284;SDS011;8250;52.426;9.450;2022-08-19T14:35:33;0.90;;;0.90;;
16284;SDS011;8250;52.426;9.450;2022-08-19T14:38:01;0.90;;;0.88;;
16284;SDS011;8250;52.426;9.450;2022-08-19T14:40:28;1.95;;;1.10;;
16284;SDS011;8250;52.426;9.450;2022-08-19T14:42:57;0.88;;;0.88;;
16284;SDS011;8250;52.426;9.450;2022-08-19T14:45:30;1.00;;;0.90;;
16284;SDS011;8250;52.426;9.450;2022-08-19T14:47:58;1.13;;;1.02;;
16284;SDS011;8250;52.426;9.450;2022-08-19T14:50:25;2.00;;;1.00;;
16284;SDS011;8250;52.426;9.450;2022-08-19T14:52:57;1.63;;;1.40;;
16284;SDS011;8250;52.426;9.450;2022-08-19T14:55:24;1.73;;;1.10;;
16284;SDS011;8250;52.426;9.450;2022-08-19T14:57:52;1.13;;;1.02;;
16284;SDS011;8250;52.426;9.450;2022-08-19T15:00:18;1.23;;;1.13;;
16284;SDS011;8250;52.426;9.450;2022-08-19T15:02:47;1.10;;;1.00;;
16284;SDS011;8250;52.426;9.450;2022-08-19T15:05:14;1.17;;;1.08;;
16284;SDS011;8250;52.426;9.450;2022-08-19T15:07:41;1.77;;;1.10;;
16284;SDS011;8250;52.426;9.450;2022-08-19T15:10:09;1.00;;;0.93;;